createdAt,value
2019-02-10T00:01:51.972Z,3.23
2019-02-10T00:04:19.211Z,3.80
2019-02-10T00:06:46.443Z,3.50
2019-02-10T00:09:13.760Z,3.43
2019-02-10T00:11:40.987Z,3.50
2019-02-10T00:14:08.220Z,3.40
2019-02-10T00:16:35.451Z,4.00
2019-02-10T00:19:02.712Z,4.40
2019-02-10T00:21:30.119Z,6.83
2019-02-10T00:23:57.360Z,3.70
2019-02-10T00:26:24.591Z,3.00
2019-02-10T00:28:51.827Z,3.03
2019-02-10T00:31:19.349Z,3.10
2019-02-10T00:33:46.612Z,3.73
2019-02-10T00:36:13.923Z,3.40
2019-02-10T00:38:41.212Z,3.70
2019-02-10T00:41:08.798Z,4.10
2019-02-10T00:43:36.042Z,3.27
2019-02-10T00:46:03.280Z,4.53
2019-02-10T00:48:30.524Z,4.10
2019-02-10T00:50:57.747Z,3.53
2019-02-10T00:53:24.983Z,3.50
2019-02-10T00:55:52.220Z,3.67
2019-02-10T00:58:19.738Z,3.60
2019-02-10T01:00:46.969Z,2.93
2019-02-10T01:03:14.416Z,3.20
2019-02-10T01:05:42.020Z,1.87
2019-02-10T01:08:09.254Z,2.23
2019-02-10T01:10:36.594Z,2.27
2019-02-10T01:13:03.862Z,2.30
2019-02-10T01:15:31.443Z,2.00
2019-02-10T01:17:58.845Z,2.67
2019-02-10T01:20:26.070Z,2.43
2019-02-10T01:22:53.313Z,2.40
2019-02-10T01:25:20.644Z,2.77
2019-02-10T01:27:47.894Z,2.33
2019-02-10T01:30:15.141Z,2.33
2019-02-10T01:32:42.471Z,2.17
2019-02-10T01:35:09.699Z,2.50
2019-02-10T01:37:37.227Z,2.27
2019-02-10T01:40:05.461Z,2.40
2019-02-10T01:42:32.701Z,2.70
2019-02-10T01:44:59.927Z,2.70
2019-02-10T01:47:27.166Z,2.77
2019-02-10T01:49:55.190Z,2.03
2019-02-10T01:52:22.447Z,2.10
2019-02-10T01:54:49.688Z,2.10
2019-02-10T01:57:17.261Z,2.37
2019-02-10T01:59:44.505Z,2.27
2019-02-10T02:02:11.733Z,1.83
2019-02-10T02:04:39.340Z,1.70
2019-02-10T02:07:06.676Z,2.30
2019-02-10T02:09:34.539Z,2.23
2019-02-10T02:12:01.768Z,2.27
2019-02-10T02:14:29.203Z,1.80
2019-02-10T02:16:56.433Z,2.17
2019-02-10T02:19:23.673Z,2.20
2019-02-10T02:21:50.907Z,1.97
2019-02-10T02:24:18.134Z,2.20
2019-02-10T02:26:45.353Z,1.77
2019-02-10T02:29:12.584Z,1.80
2019-02-10T02:31:39.897Z,2.10
2019-02-10T02:34:07.116Z,2.00
2019-02-10T02:36:41.234Z,2.57
2019-02-10T02:39:08.503Z,2.00
2019-02-10T02:41:35.737Z,2.23
2019-02-10T02:44:02.951Z,1.87
2019-02-10T02:46:30.171Z,2.20
2019-02-10T02:48:57.398Z,2.07
2019-02-10T02:51:24.617Z,1.83
2019-02-10T02:53:51.828Z,1.67
2019-02-10T02:56:19.156Z,2.07
2019-02-10T02:58:46.383Z,1.70
2019-02-10T03:01:13.744Z,2.00
2019-02-10T03:03:41.267Z,1.90
2019-02-10T03:06:08.855Z,2.17
2019-02-10T03:08:36.164Z,1.77
2019-02-10T03:11:03.407Z,1.90
2019-02-10T03:13:30.625Z,1.90
2019-02-10T03:15:57.865Z,2.30
2019-02-10T03:18:25.387Z,2.00
2019-02-10T03:20:52.644Z,1.50
2019-02-10T03:23:19.855Z,1.60
2019-02-10T03:25:56.113Z,1.70
2019-02-10T03:28:23.339Z,1.60
2019-02-10T03:30:50.649Z,1.53
2019-02-10T03:33:17.858Z,1.90
2019-02-10T03:35:45.099Z,1.57
2019-02-10T03:38:12.412Z,1.60
2019-02-10T03:40:39.661Z,1.67
2019-02-10T03:43:06.876Z,1.53
2019-02-10T03:45:34.125Z,1.77
2019-02-10T03:48:01.370Z,1.50
2019-02-10T03:50:28.695Z,2.03
2019-02-10T03:52:55.918Z,1.90
2019-02-10T03:55:23.164Z,2.00
2019-02-10T03:57:50.390Z,1.50
2019-02-10T04:00:17.719Z,1.50
2019-02-10T04:02:45.349Z,1.50
2019-02-10T04:05:12.579Z,1.67
2019-02-10T04:07:39.832Z,1.47
2019-02-10T04:10:07.640Z,1.70
2019-02-10T04:12:35.151Z,2.17
2019-02-10T04:15:02.579Z,1.90
2019-02-10T04:17:29.834Z,1.83
2019-02-10T04:19:57.152Z,1.70
2019-02-10T04:22:24.481Z,1.67
2019-02-10T04:24:51.707Z,2.07
2019-02-10T04:27:18.953Z,1.80
2019-02-10T04:29:46.173Z,1.73
2019-02-10T04:32:13.796Z,1.77
2019-02-10T04:34:41.344Z,2.00
2019-02-10T04:37:08.596Z,1.40
2019-02-10T04:39:35.823Z,2.20
2019-02-10T04:42:03.079Z,1.80
2019-02-10T04:44:30.301Z,1.67
2019-02-10T04:46:57.540Z,1.67
2019-02-10T04:49:24.767Z,2.30
2019-02-10T04:51:51.954Z,1.93
2019-02-10T04:54:19.232Z,1.63
2019-02-10T04:56:46.940Z,1.90
2019-02-10T04:59:14.236Z,2.30
2019-02-10T05:01:41.508Z,2.10
2019-02-10T05:04:08.737Z,1.90
2019-02-10T05:06:36.066Z,2.40
2019-02-10T05:09:04.548Z,1.90
2019-02-10T05:11:31.704Z,1.73
2019-02-10T05:13:58.933Z,1.70
2019-02-10T05:16:26.181Z,1.50
2019-02-10T05:18:53.517Z,1.83
2019-02-10T05:21:20.773Z,2.17
2019-02-10T05:23:47.984Z,2.10
2019-02-10T05:26:15.209Z,2.07
2019-02-10T05:28:42.525Z,1.80
2019-02-10T05:31:09.823Z,2.17
2019-02-10T05:33:37.049Z,1.80
2019-02-10T05:36:04.578Z,1.80
2019-02-10T05:38:31.888Z,1.60
2019-02-10T05:40:59.101Z,1.60
2019-02-10T05:43:26.642Z,1.60
2019-02-10T05:45:53.870Z,1.80
2019-02-10T05:48:21.200Z,1.70
2019-02-10T05:50:48.413Z,1.63
2019-02-10T05:53:15.651Z,1.47
2019-02-10T05:55:42.867Z,1.57
2019-02-10T05:58:10.234Z,1.70
2019-02-10T06:00:37.473Z,1.47
2019-02-10T06:03:05.078Z,1.67
2019-02-10T06:05:32.745Z,1.23
2019-02-10T06:08:00.080Z,1.30
2019-02-10T06:10:27.350Z,1.20
2019-02-10T06:12:54.649Z,1.47
2019-02-10T06:15:21.855Z,1.53
2019-02-10T06:17:49.392Z,1.30
2019-02-10T06:20:16.614Z,1.50
2019-02-10T06:22:43.865Z,1.37
2019-02-10T06:25:11.090Z,1.90
2019-02-10T06:27:38.439Z,1.47
2019-02-10T06:30:06.224Z,1.40
2019-02-10T06:32:33.474Z,1.30
2019-02-10T06:35:00.688Z,1.53
2019-02-10T06:37:28.129Z,1.50
2019-02-10T06:39:55.359Z,1.33
2019-02-10T06:42:22.613Z,1.20
2019-02-10T06:44:49.857Z,1.40
2019-02-10T06:47:17.095Z,1.60
2019-02-10T06:49:44.609Z,1.03
2019-02-10T06:52:11.851Z,1.47
2019-02-10T06:54:44.576Z,1.23
2019-02-10T06:57:12.120Z,1.20
2019-02-10T06:59:47.211Z,1.20
2019-02-10T07:02:39.113Z,1.23
2019-02-10T07:05:07.886Z,1.57
2019-02-10T07:07:35.136Z,1.47
2019-02-10T07:10:02.355Z,1.10
2019-02-10T07:13:01.413Z,1.30
2019-02-10T07:16:05.279Z,1.17
2019-02-10T07:19:09.385Z,1.10
2019-02-10T07:21:39.970Z,0.90
2019-02-10T07:24:43.481Z,0.90
2019-02-10T07:27:16.838Z,1.00
2019-02-10T07:30:35.084Z,1.33
2019-02-10T07:33:19.000Z,1.10
2019-02-10T07:35:54.680Z,1.10
2019-02-10T07:38:56.842Z,0.83
2019-02-10T07:42:06.011Z,1.03
2019-02-10T07:45:18.039Z,1.03
2019-02-10T07:48:26.319Z,1.30
2019-02-10T07:51:34.567Z,1.10
2019-02-10T07:54:45.535Z,1.33
2019-02-10T07:57:50.432Z,1.20
2019-02-10T08:00:29.923Z,1.30
2019-02-10T08:03:39.195Z,1.63
2019-02-10T08:06:32.247Z,1.43
2019-02-10T08:09:41.797Z,1.50
2019-02-10T08:12:50.732Z,1.73
2019-02-10T08:15:32.544Z,1.90
2019-02-10T08:18:28.851Z,1.57
2019-02-10T08:21:22.149Z,2.20
2019-02-10T08:24:30.461Z,1.70
2019-02-10T08:27:35.640Z,1.90
2019-02-10T08:30:30.309Z,2.30
2019-02-10T08:33:18.395Z,2.03
2019-02-10T08:36:30.522Z,2.27
2019-02-10T08:39:36.798Z,2.07
2019-02-10T08:42:44.783Z,2.27
2019-02-10T08:45:50.983Z,2.43
2019-02-10T08:48:54.391Z,2.10
2019-02-10T08:52:08.519Z,2.07
2019-02-10T08:54:35.759Z,2.20
2019-02-10T08:57:03.031Z,1.97
2019-02-10T08:59:30.603Z,1.90
2019-02-10T09:01:57.891Z,2.00
2019-02-10T09:04:25.133Z,2.00
2019-02-10T09:06:52.415Z,1.60
2019-02-10T09:09:20.029Z,1.80
2019-02-10T09:11:51.579Z,1.73
2019-02-10T09:14:18.816Z,1.50
2019-02-10T09:16:46.092Z,1.67
2019-02-10T09:19:13.323Z,1.77
2019-02-10T09:21:40.611Z,1.93
2019-02-10T09:24:08.149Z,2.07
2019-02-10T09:26:36.740Z,2.07
2019-02-10T09:29:04.014Z,2.00
2019-02-10T09:31:33.184Z,2.07
2019-02-10T09:34:00.640Z,2.00
2019-02-10T09:36:28.339Z,1.97
2019-02-10T09:38:55.572Z,2.30
2019-02-10T09:41:22.860Z,1.70
2019-02-10T09:43:50.096Z,2.33
2019-02-10T09:46:17.631Z,1.90
2019-02-10T09:48:44.868Z,1.90
2019-02-10T09:51:12.196Z,1.40
2019-02-10T09:53:39.415Z,1.73
2019-02-10T09:56:06.665Z,1.90
2019-02-10T09:58:33.975Z,1.50
2019-02-10T10:01:01.201Z,1.73
2019-02-10T10:03:28.438Z,1.70
2019-02-10T10:05:55.676Z,1.87
2019-02-10T10:08:22.903Z,1.70
2019-02-10T10:10:50.137Z,1.70
2019-02-10T10:13:17.430Z,2.03
2019-02-10T10:15:44.659Z,1.70
2019-02-10T10:18:11.952Z,1.60
2019-02-10T10:20:39.644Z,1.57
2019-02-10T10:23:06.929Z,1.57
2019-02-10T10:25:34.160Z,1.63
2019-02-10T10:28:01.859Z,2.10
2019-02-10T10:30:29.076Z,1.50
2019-02-10T10:32:56.598Z,1.70
2019-02-10T10:35:23.887Z,1.70
2019-02-10T10:37:51.526Z,1.40
2019-02-10T10:40:18.838Z,1.60
2019-02-10T10:42:46.127Z,1.70
2019-02-10T10:45:13.367Z,1.50
2019-02-10T10:47:40.991Z,1.30
2019-02-10T10:50:08.767Z,1.40
2019-02-10T10:52:36.051Z,1.20
2019-02-10T10:55:03.888Z,1.57
2019-02-10T10:57:31.123Z,1.60
2019-02-10T10:59:58.347Z,1.30
2019-02-10T11:02:25.670Z,1.60
2019-02-10T11:04:52.910Z,1.30
2019-02-10T11:07:20.231Z,1.53
2019-02-10T11:09:47.774Z,1.37
2019-02-10T11:12:15.009Z,2.00
2019-02-10T11:14:42.584Z,1.53
2019-02-10T11:17:10.509Z,1.60
2019-02-10T11:19:37.973Z,1.63
2019-02-10T11:22:05.204Z,1.83
2019-02-10T11:24:32.508Z,1.70
2019-02-10T11:26:59.730Z,1.80
2019-02-10T11:29:27.528Z,1.60
2019-02-10T11:31:54.791Z,2.37
2019-02-10T11:34:22.111Z,2.10
2019-02-10T11:36:49.451Z,2.17
2019-02-10T11:39:17.143Z,2.93
2019-02-10T11:41:44.379Z,1.93
2019-02-10T11:44:12.053Z,2.20
2019-02-10T11:46:39.365Z,2.20
2019-02-10T11:49:06.600Z,2.60
2019-02-10T11:51:33.858Z,2.90
2019-02-10T11:54:03.520Z,2.50
2019-02-10T11:56:30.755Z,2.50
2019-02-10T11:58:58.375Z,2.70
2019-02-10T12:01:25.613Z,2.50
2019-02-10T12:03:52.895Z,2.83
2019-02-10T12:06:20.119Z,2.53
2019-02-10T12:08:47.382Z,2.40
2019-02-10T12:11:14.599Z,2.33
2019-02-10T12:13:41.876Z,3.20
2019-02-10T12:16:09.095Z,2.17
2019-02-10T12:18:36.371Z,2.73
2019-02-10T12:21:03.913Z,2.97
2019-02-10T12:23:31.133Z,2.10
2019-02-10T12:25:58.357Z,2.40
2019-02-10T12:28:25.600Z,2.47
2019-02-10T12:30:52.945Z,2.50
2019-02-10T12:33:20.260Z,2.13
2019-02-10T12:35:47.580Z,2.93
2019-02-10T12:38:14.812Z,2.47
2019-02-10T12:40:42.041Z,1.83
2019-02-10T12:43:09.676Z,2.10
2019-02-10T12:45:36.895Z,2.40
2019-02-10T12:48:04.476Z,1.70
2019-02-10T12:50:31.699Z,2.03
2019-02-10T12:52:58.915Z,1.60
2019-02-10T12:55:27.350Z,2.23
2019-02-10T12:57:54.802Z,1.90
2019-02-10T13:00:22.117Z,2.37
2019-02-10T13:02:49.328Z,1.70
2019-02-10T13:05:16.556Z,2.27
2019-02-10T13:07:43.792Z,1.80
2019-02-10T13:10:11.219Z,2.20
2019-02-10T13:12:38.332Z,2.13
2019-02-10T13:15:06.292Z,2.30
2019-02-10T13:17:33.520Z,2.37
2019-02-10T13:20:00.823Z,1.83
2019-02-10T13:22:28.050Z,2.07
2019-02-10T13:24:55.274Z,1.93
2019-02-10T13:27:22.528Z,1.57
2019-02-10T13:29:49.839Z,1.50
2019-02-10T13:32:17.055Z,1.30
2019-02-10T13:34:44.287Z,1.00
2019-02-10T13:37:11.620Z,0.90
2019-02-10T13:39:38.883Z,1.00
2019-02-10T13:42:06.106Z,0.60
2019-02-10T13:44:33.406Z,0.60
2019-02-10T13:47:00.736Z,0.60
2019-02-10T13:49:28.073Z,1.00
2019-02-10T13:51:55.296Z,0.60
2019-02-10T13:54:22.576Z,1.30
2019-02-10T13:56:49.800Z,0.90
2019-02-10T13:59:17.031Z,0.57
2019-02-10T14:01:44.608Z,0.80
2019-02-10T14:04:12.267Z,0.70
2019-02-10T14:06:39.598Z,0.90
2019-02-10T14:09:06.812Z,0.60
2019-02-10T14:11:34.041Z,0.60
2019-02-10T14:14:01.260Z,0.60
2019-02-10T14:16:28.487Z,0.60
2019-02-10T14:18:55.707Z,0.67
2019-02-10T14:21:22.927Z,0.73
2019-02-10T14:23:50.155Z,2.57
2019-02-10T14:26:17.377Z,2.20
2019-02-10T14:28:44.591Z,4.80
2019-02-10T14:31:11.887Z,0.60
2019-02-10T14:33:39.260Z,0.50
2019-02-10T14:36:06.639Z,0.60
2019-02-10T14:38:36.121Z,0.40
2019-02-10T14:41:03.320Z,0.70
2019-02-10T14:43:30.844Z,0.40
2019-02-10T14:45:58.054Z,0.57
2019-02-10T14:48:25.275Z,0.50
2019-02-10T14:50:52.492Z,0.50
2019-02-10T14:53:19.707Z,0.50
2019-02-10T14:55:46.936Z,0.60
2019-02-10T14:58:14.459Z,0.47
2019-02-10T15:00:41.675Z,0.50
2019-02-10T15:03:09.152Z,0.50
2019-02-10T15:05:36.370Z,0.50
2019-02-10T15:08:03.586Z,0.40
2019-02-10T15:10:30.807Z,0.40
2019-02-10T15:12:58.023Z,1.00
2019-02-10T15:15:25.243Z,1.57
2019-02-10T15:17:52.486Z,0.60
2019-02-10T15:20:20.047Z,0.60
2019-02-10T15:22:47.280Z,0.80
2019-02-10T15:25:14.508Z,0.60
2019-02-10T15:27:41.748Z,0.80
2019-02-10T15:30:10.319Z,0.40
2019-02-10T15:32:37.548Z,0.40
2019-02-10T15:35:04.936Z,0.30
2019-02-10T15:37:32.204Z,0.40
2019-02-10T15:39:59.783Z,0.30
2019-02-10T15:42:27.055Z,0.40
2019-02-10T15:44:54.272Z,0.50
2019-02-10T15:47:21.559Z,0.40
2019-02-10T15:49:49.123Z,0.30
2019-02-10T15:52:16.391Z,0.40
2019-02-10T15:54:43.632Z,0.20
2019-02-10T15:57:11.290Z,0.30
2019-02-10T15:59:38.608Z,0.20
2019-02-10T16:02:05.889Z,0.30
2019-02-10T16:04:33.116Z,0.30
2019-02-10T16:07:04.573Z,0.40
2019-02-10T16:09:31.815Z,0.27
2019-02-10T16:12:00.843Z,0.50
2019-02-10T16:14:28.159Z,0.20
2019-02-10T16:16:58.233Z,0.40
2019-02-10T16:19:25.547Z,0.40
2019-02-10T16:22:16.198Z,0.50
2019-02-10T16:24:43.425Z,0.60
2019-02-10T16:27:10.953Z,0.50
2019-02-10T16:29:38.163Z,0.40
2019-02-10T16:32:05.387Z,0.40
2019-02-10T16:34:32.622Z,0.50
2019-02-10T16:36:59.923Z,0.57
2019-02-10T16:39:27.142Z,0.80
2019-02-10T16:41:54.366Z,0.70
2019-02-10T16:44:21.588Z,0.50
2019-02-10T16:46:49.595Z,0.60
2019-02-10T16:49:16.916Z,0.80
2019-02-10T16:51:44.153Z,0.80
2019-02-10T16:54:11.366Z,0.60
2019-02-10T16:56:38.683Z,0.60
2019-02-10T16:59:05.896Z,0.60
2019-02-10T17:01:33.421Z,0.40
2019-02-10T17:04:00.649Z,0.40
2019-02-10T17:06:28.204Z,0.40
2019-02-10T17:08:55.624Z,0.40
2019-02-10T17:11:22.926Z,0.40
2019-02-10T17:13:50.473Z,0.30
2019-02-10T17:16:17.701Z,0.30
2019-02-10T17:18:44.928Z,0.33
2019-02-10T17:21:12.154Z,0.50
2019-02-10T17:23:39.485Z,0.60
2019-02-10T17:26:06.808Z,0.70
2019-02-10T17:28:34.396Z,0.50
2019-02-10T17:31:01.955Z,0.60
2019-02-10T17:33:29.236Z,0.60
2019-02-10T17:35:56.516Z,0.50
2019-02-10T17:38:23.804Z,0.50
2019-02-10T17:41:06.320Z,0.50
2019-02-10T17:43:34.772Z,0.43
2019-02-10T17:46:01.883Z,0.70
2019-02-10T17:48:29.548Z,0.90
2019-02-10T17:50:56.769Z,0.80
2019-02-10T17:53:24.345Z,0.50
2019-02-10T17:55:52.463Z,0.70
2019-02-10T17:58:19.767Z,0.60
2019-02-10T18:00:48.172Z,0.80
2019-02-10T18:03:15.456Z,0.60
2019-02-10T18:05:42.752Z,0.77
2019-02-10T18:08:10.289Z,0.60
2019-02-10T18:10:38.480Z,0.57
2019-02-10T18:13:05.760Z,0.87
2019-02-10T18:15:51.192Z,0.40
2019-02-10T18:18:40.881Z,0.60
2019-02-10T18:21:28.855Z,0.60
2019-02-10T18:24:15.661Z,1.00
2019-02-10T18:26:55.578Z,0.70
2019-02-10T18:29:45.175Z,0.80
2019-02-10T18:32:29.291Z,0.70
2019-02-10T18:35:10.426Z,0.80
2019-02-10T18:38:04.826Z,0.87
2019-02-10T18:40:50.246Z,0.80
2019-02-10T18:43:36.311Z,0.70
2019-02-10T18:46:32.463Z,0.80
2019-02-10T18:49:12.361Z,0.90
2019-02-10T18:52:04.804Z,1.00
2019-02-10T18:55:06.660Z,2.63
2019-02-10T18:57:46.151Z,1.20
2019-02-10T19:00:33.181Z,1.00
2019-02-10T19:03:22.755Z,0.97
2019-02-10T19:06:00.895Z,0.73
2019-02-10T19:08:46.429Z,0.90
2019-02-10T19:11:31.803Z,1.00
2019-02-10T19:14:16.412Z,1.23
2019-02-10T19:16:54.903Z,0.80
2019-02-10T19:19:41.738Z,0.70
2019-02-10T19:22:27.004Z,0.57
2019-02-10T19:25:13.103Z,0.70
2019-02-10T19:27:58.320Z,0.50
2019-02-10T19:30:47.859Z,0.60
2019-02-10T19:33:34.677Z,0.70
2019-02-10T19:36:23.988Z,0.77
2019-02-10T19:39:05.624Z,0.70
2019-02-10T19:41:40.667Z,0.60
2019-02-10T19:44:20.606Z,0.50
2019-02-10T19:47:01.893Z,0.50
2019-02-10T19:49:54.558Z,0.60
2019-02-10T19:52:56.347Z,0.40
2019-02-10T19:55:41.466Z,0.70
2019-02-10T19:58:26.831Z,0.50
2019-02-10T20:01:19.276Z,0.70
2019-02-10T20:04:17.840Z,1.00
2019-02-10T20:07:00.939Z,0.50
2019-02-10T20:09:51.311Z,0.70
2019-02-10T20:12:53.228Z,0.90
2019-02-10T20:15:32.867Z,0.90
2019-02-10T20:18:18.409Z,0.80
2019-02-10T20:20:54.026Z,1.00
2019-02-10T20:23:43.555Z,2.10
2019-02-10T20:26:36.017Z,0.70
2019-02-10T20:29:21.585Z,0.70
2019-02-10T20:32:17.349Z,2.80
2019-02-10T20:35:07.073Z,0.73
2019-02-10T20:38:00.839Z,0.60
2019-02-10T20:40:45.547Z,0.77
2019-02-10T20:43:50.249Z,0.70
2019-02-10T20:46:45.899Z,0.70
2019-02-10T20:49:30.358Z,0.80
2019-02-10T20:52:17.132Z,0.80
2019-02-10T20:55:03.875Z,0.90
2019-02-10T20:57:56.576Z,0.70
2019-02-10T21:00:42.003Z,0.70
2019-02-10T21:03:14.744Z,0.70
2019-02-10T21:06:04.404Z,0.90
2019-02-10T21:08:56.816Z,0.70
2019-02-10T21:11:43.551Z,0.80
2019-02-10T21:14:42.308Z,0.90
2019-02-10T21:17:31.862Z,0.90
2019-02-10T21:20:30.707Z,1.30
2019-02-10T21:23:29.482Z,0.80
2019-02-10T21:26:22.012Z,1.23
2019-02-10T21:28:59.452Z,1.33
2019-02-10T21:31:44.559Z,1.23
2019-02-10T21:34:27.991Z,1.00
2019-02-10T21:37:07.939Z,1.33
2019-02-10T21:40:00.443Z,1.20
2019-02-10T21:42:47.241Z,0.93
2019-02-10T21:45:42.793Z,1.10
2019-02-10T21:48:19.735Z,1.30
2019-02-10T21:50:46.962Z,1.50
2019-02-10T21:53:14.228Z,1.10
2019-02-10T21:55:41.452Z,1.50
2019-02-10T21:58:08.722Z,1.50
2019-02-10T22:00:35.945Z,1.20
2019-02-10T22:03:03.211Z,1.30
2019-02-10T22:05:30.436Z,1.13
2019-02-10T22:07:57.746Z,1.23
2019-02-10T22:10:24.979Z,1.10
2019-02-10T22:12:52.599Z,1.17
2019-02-10T22:15:21.961Z,1.20
2019-02-10T22:17:49.542Z,1.23
2019-02-10T22:20:17.416Z,1.07
2019-02-10T22:22:44.663Z,1.13
2019-02-10T22:25:12.222Z,1.43
2019-02-10T22:27:39.539Z,1.20
2019-02-10T22:30:10.250Z,1.03
2019-02-10T22:32:37.843Z,1.20
2019-02-10T22:35:05.083Z,1.47
2019-02-10T22:37:32.318Z,0.90
2019-02-10T22:39:59.913Z,0.70
2019-02-10T22:42:27.233Z,0.70
2019-02-10T22:44:54.473Z,1.00
2019-02-10T22:47:21.846Z,1.20
2019-02-10T22:49:49.084Z,1.50
2019-02-10T22:52:16.311Z,1.47
2019-02-10T22:54:43.547Z,1.30
2019-02-10T22:57:10.892Z,1.50
2019-02-10T22:59:38.275Z,1.33
2019-02-10T23:02:06.105Z,1.43
2019-02-10T23:04:33.792Z,1.50
2019-02-10T23:07:01.045Z,1.60
2019-02-10T23:09:28.588Z,1.63
2019-02-10T23:11:55.828Z,1.40
2019-02-10T23:14:23.087Z,1.40
2019-02-10T23:16:50.651Z,1.60
2019-02-10T23:19:19.795Z,1.60
2019-02-10T23:21:47.274Z,1.27
2019-02-10T23:24:14.526Z,1.20
2019-02-10T23:26:41.768Z,1.20
2019-02-10T23:29:09.026Z,1.23
2019-02-10T23:31:36.251Z,0.90
2019-02-10T23:34:03.503Z,1.20
2019-02-10T23:36:30.736Z,1.27
2019-02-10T23:38:58.261Z,1.20
2019-02-10T23:41:25.518Z,1.20
2019-02-10T23:43:52.748Z,1.50
2019-02-10T23:46:20.344Z,1.20
2019-02-10T23:48:47.576Z,1.20
2019-02-10T23:51:14.830Z,1.30
2019-02-10T23:53:42.073Z,1.10
2019-02-10T23:56:09.410Z,1.17
2019-02-10T23:58:36.740Z,1.33
